Time;durP1;ratioP1;P1;durP2;ratioP2;P2;SDS_P1;SDS_P2;PMS_P1;PMS_P2;Temp;Humidity;BMP_temperature;BMP_pressure;BME280_temperature;BME280_humidity;BME280_pressure;Samples;Min_cycle;Max_cycle;Signal;HPM_P1;HPM_P2
2023/08/27 00:01:30;;;;;;;27.88;20.27;;;11.90;99.90;;;;;;5072295;28;20404;-24
2023/08/27 00:03:56;;;;;;;29.30;20.95;;;11.90;99.90;;;;;;5073447;28;20131;-24
2023/08/27 00:06:22;;;;;;;26.80;20.42;;;11.90;99.90;;;;;;5076852;28;20051;-23
2023/08/27 00:08:48;;;;;;;25.77;20.75;;;11.90;99.90;;;;;;5080088;28;20040;-24
2023/08/27 00:11:14;;;;;;;28.90;20.13;;;11.90;99.90;;;;;;5080882;28;20106;-24
2023/08/27 00:13:39;;;;;;;24.63;19.45;;;11.90;99.90;;;;;;5080247;28;20421;-25
2023/08/27 00:16:06;;;;;;;41.50;20.05;;;12.00;99.90;;;;;;5080543;28;20048;-24
2023/08/27 00:18:32;;;;;;;24.83;20.27;;;11.90;99.90;;;;;;5076682;28;20105;-24
2023/08/27 00:20:58;;;;;;;24.70;20.27;;;11.90;99.90;;;;;;5080515;28;20128;-24
2023/08/27 00:23:24;;;;;;;22.10;17.90;;;11.80;99.90;;;;;;5079980;28;20079;-24
2023/08/27 00:25:50;;;;;;;24.80;20.25;;;11.80;99.90;;;;;;5080517;28;20060;-24
2023/08/27 00:28:16;;;;;;;26.23;19.95;;;11.90;99.90;;;;;;5077636;28;20052;-24
2023/08/27 00:30:42;;;;;;;25.65;19.38;;;11.90;99.90;;;;;;5079862;28;20044;-24
2023/08/27 00:33:08;;;;;;;25.65;20.20;;;11.90;99.90;;;;;;5079851;28;20052;-24
2023/08/27 00:35:35;;;;;;;25.15;18.90;;;11.80;99.90;;;;;;5079808;28;20045;-24
2023/08/27 00:38:01;;;;;;;25.30;18.83;;;11.80;99.90;;;;;;5073324;28;20081;-24
2023/08/27 00:40:29;;;;;;;25.52;20.00;;;11.80;99.90;;;;;;5059648;28;20122;-24
2023/08/27 00:42:56;;;;;;;25.63;19.75;;;11.90;99.90;;;;;;5060544;28;20053;-24
2023/08/27 00:45:21;;;;;;;25.88;18.95;;;11.80;99.90;;;;;;5060344;28;20047;-24
2023/08/27 00:47:47;;;;;;;25.70;20.00;;;11.90;99.90;;;;;;5060016;28;20041;-24
2023/08/27 00:50:14;;;;;;;25.55;19.98;;;11.80;99.90;;;;;;5076767;28;20048;-25
2023/08/27 00:52:42;;;;;;;24.92;19.73;;;11.90;99.90;;;;;;5066350;28;20363;-24
2023/08/27 00:55:08;;;;;;;24.70;18.63;;;11.80;99.90;;;;;;5059495;28;20079;-24
2023/08/27 00:57:36;;;;;;;23.90;18.02;;;11.90;99.90;;;;;;5059634;28;20041;-24
2023/08/27 01:00:03;;;;;;;24.80;19.05;;;11.80;99.90;;;;;;5070230;28;20076;-24
2023/08/27 01:02:28;;;;;;;23.85;19.10;;;11.80;99.90;;;;;;5079577;28;20048;-24
2023/08/27 01:04:54;;;;;;;27.83;20.48;;;11.80;99.90;;;;;;5079577;28;20044;-24
2023/08/27 01:07:32;;;;;;;26.05;20.55;;;11.90;99.90;;;;;;5079566;28;20132;-24
2023/08/27 01:10:11;;;;;;;28.00;19.35;;;11.80;99.90;;;;;;5071497;28;20052;-24
2023/08/27 01:12:57;;;;;;;24.65;19.10;;;12.00;99.90;;;;;;5058102;28;20060;-24
2023/08/27 01:15:25;;;;;;;24.23;17.42;;;11.90;99.90;;;;;;5058158;28;20558;-24
2023/08/27 01:17:52;;;;;;;28.55;19.33;;;11.90;99.90;;;;;;5055415;28;20505;-24
2023/08/27 01:20:18;;;;;;;26.55;19.13;;;11.90;99.90;;;;;;5056033;28;20073;-24
2023/08/27 01:22:44;;;;;;;23.10;18.63;;;11.90;99.90;;;;;;5056499;28;20122;-24
2023/08/27 01:25:11;;;;;;;25.00;18.70;;;12.00;99.90;;;;;;5055889;28;20045;-24
2023/08/27 01:27:50;;;;;;;23.00;18.40;;;12.00;99.90;;;;;;5055983;28;20057;-24
2023/08/27 01:30:19;;;;;;;22.00;17.20;;;12.00;99.90;;;;;;5065713;28;20055;-24
2023/08/27 01:32:57;;;;;;;26.50;20.10;;;12.10;99.90;;;;;;5075078;28;20619;-24
2023/08/27 01:35:23;;;;;;;22.70;18.38;;;12.10;99.90;;;;;;5076036;28;20083;-24
2023/08/27 01:37:49;;;;;;;26.48;19.05;;;12.10;99.90;;;;;;5076502;28;20052;-24
2023/08/27 01:40:17;;;;;;;29.02;19.45;;;12.00;99.90;;;;;;5053349;28;20074;-24
2023/08/27 01:42:43;;;;;;;24.33;19.50;;;12.00;99.90;;;;;;5038063;28;20498;-24
2023/08/27 01:45:10;;;;;;;24.20;18.92;;;12.00;99.90;;;;;;5054661;28;20080;-24
2023/08/27 01:47:35;;;;;;;24.92;18.45;;;12.00;99.90;;;;;;5054607;28;20049;-24
2023/08/27 01:50:01;;;;;;;21.65;17.58;;;12.00;99.90;;;;;;5054896;28;20512;-23
2023/08/27 01:52:27;;;;;;;23.52;18.35;;;11.80;99.90;;;;;;5074272;28;20051;-24
2023/08/27 01:54:53;;;;;;;24.02;18.67;;;11.80;99.90;;;;;;5076426;28;20094;-24
2023/08/27 01:57:18;;;;;;;25.98;19.20;;;11.80;99.90;;;;;;5074427;28;20494;-24
2023/08/27 01:59:44;;;;;;;24.05;18.35;;;11.70;99.90;;;;;;5074341;28;20040;-24
2023/08/27 02:02:10;;;;;;;24.75;18.05;;;11.60;99.90;;;;;;5072176;28;20048;-24
2023/08/27 02:04:37;;;;;;;28.30;18.33;;;11.70;99.90;;;;;;5073934;28;20055;-24
2023/08/27 02:07:03;;;;;;;25.52;19.33;;;11.70;99.90;;;;;;5075350;28;20052;-24
2023/08/27 02:09:28;;;;;;;24.52;18.27;;;11.50;99.90;;;;;;5075329;28;20482;-24
2023/08/27 02:11:54;;;;;;;24.10;18.10;;;11.60;99.90;;;;;;5072174;28;20131;-24
2023/08/27 02:14:20;;;;;;;28.00;18.25;;;11.60;99.90;;;;;;5075793;28;20544;-24
2023/08/27 02:16:45;;;;;;;24.27;17.60;;;11.50;99.90;;;;;;5075712;28;20040;-23
2023/08/27 02:19:11;;;;;;;30.30;20.48;;;11.60;99.90;;;;;;5075095;28;20090;-24
2023/08/27 02:21:37;;;;;;;24.67;19.98;;;11.50;99.90;;;;;;5075121;28;20106;-24
2023/08/27 02:24:03;;;;;;;24.58;19.52;;;11.50;99.90;;;;;;5056186;28;20518;-24
2023/08/27 02:26:29;;;;;;;23.17;16.58;;;11.60;99.90;;;;;;5055009;28;20080;-24
2023/08/27 02:28:54;;;;;;;26.05;19.38;;;11.60;99.90;;;;;;5053158;28;20095;-24
2023/08/27 02:31:20;;;;;;;24.60;19.95;;;11.70;99.90;;;;;;5054478;28;20095;-24
2023/08/27 02:33:46;;;;;;;27.20;18.27;;;11.50;99.90;;;;;;5054580;28;20053;-24
2023/08/27 02:36:12;;;;;;;22.83;17.77;;;11.60;99.90;;;;;;5054860;28;20049;-24
2023/08/27 02:38:38;;;;;;;26.00;19.58;;;11.40;99.90;;;;;;5055235;28;20132;-24
2023/08/27 02:41:04;;;;;;;23.63;18.88;;;11.40;99.90;;;;;;5053502;28;20475;-24
2023/08/27 02:43:29;;;;;;;25.75;19.40;;;11.40;99.90;;;;;;5060734;28;20170;-24
2023/08/27 02:45:55;;;;;;;34.90;21.83;;;11.40;99.90;;;;;;5074624;28;20048;-24
2023/08/27 02:48:21;;;;;;;32.75;21.77;;;11.50;99.90;;;;;;5074582;28;20071;-24
2023/08/27 02:50:46;;;;;;;33.90;21.38;;;11.30;99.90;;;;;;5073594;28;20066;-24
2023/08/27 02:53:12;;;;;;;29.50;19.40;;;11.40;99.90;;;;;;5073407;28;20048;-23
2023/08/27 02:55:38;;;;;;;26.30;20.67;;;11.30;99.90;;;;;;5073382;28;20102;-23
2023/08/27 02:58:03;;;;;;;25.88;18.50;;;11.40;99.90;;;;;;5074447;28;20190;-23
2023/08/27 03:00:29;;;;;;;28.48;18.98;;;11.20;99.90;;;;;;5074318;28;20548;-23
2023/08/27 03:02:56;;;;;;;23.88;18.17;;;11.30;99.90;;;;;;5073304;28;20044;-23
2023/08/27 03:05:22;;;;;;;23.42;19.15;;;11.20;99.90;;;;;;5071969;28;20048;-23
2023/08/27 03:07:47;;;;;;;24.67;19.35;;;11.20;99.90;;;;;;5073296;28;20181;-23
2023/08/27 03:10:14;;;;;;;25.38;20.58;;;11.20;99.90;;;;;;5073203;28;20055;-23
2023/08/27 03:12:40;;;;;;;27.52;20.23;;;11.30;99.90;;;;;;5074141;28;20393;-23
2023/08/27 03:15:06;;;;;;;27.20;19.63;;;11.20;99.90;;;;;;5069298;28;20044;-23
2023/08/27 03:17:32;;;;;;;24.25;19.08;;;11.30;99.90;;;;;;5070057;28;20080;-24
2023/08/27 03:19:58;;;;;;;26.20;19.40;;;11.20;99.90;;;;;;5073903;28;20087;-24
2023/08/27 03:22:24;;;;;;;26.20;19.60;;;11.20;99.90;;;;;;5073953;28;20051;-23
2023/08/27 03:24:50;;;;;;;25.00;19.25;;;11.20;99.90;;;;;;5073505;28;20452;-23
2023/08/27 03:27:15;;;;;;;27.83;21.30;;;11.30;99.90;;;;;;5071119;28;20080;-23
2023/08/27 03:29:41;;;;;;;25.60;20.10;;;11.30;99.90;;;;;;5074179;28;20067;-23
2023/08/27 03:32:07;;;;;;;28.70;21.45;;;11.50;99.90;;;;;;5073869;28;20416;-24
2023/08/27 03:34:32;;;;;;;29.77;20.63;;;11.40;99.90;;;;;;5074061;28;20539;-23
2023/08/27 03:36:58;;;;;;;27.48;20.08;;;11.40;99.90;;;;;;5058506;28;20561;-23
2023/08/27 03:39:24;;;;;;;29.65;22.08;;;11.50;99.90;;;;;;5052480;28;20049;-23
2023/08/27 03:41:50;;;;;;;27.17;19.23;;;11.40;99.90;;;;;;5053451;28;20052;-23
2023/08/27 03:44:16;;;;;;;26.83;20.33;;;11.50;99.90;;;;;;5053641;28;20376;-23
2023/08/27 03:46:41;;;;;;;26.70;20.27;;;11.40;99.90;;;;;;5058749;28;20036;-23
2023/08/27 03:49:07;;;;;;;27.98;20.38;;;11.50;99.90;;;;;;5073625;28;20040;-23
2023/08/27 03:51:33;;;;;;;27.92;21.63;;;11.40;99.90;;;;;;5072634;28;20094;-23
2023/08/27 03:53:59;;;;;;;27.20;20.48;;;11.50;99.90;;;;;;5072955;28;20052;-23
2023/08/27 03:56:25;;;;;;;26.42;19.42;;;11.70;99.90;;;;;;5072118;28;20052;-22
2023/08/27 03:58:51;;;;;;;26.85;20.77;;;11.70;99.90;;;;;;5052314;28;20045;-23
2023/08/27 04:01:17;;;;;;;25.63;19.63;;;11.80;99.90;;;;;;5052607;28;20052;-23
2023/08/27 04:03:43;;;;;;;27.42;20.88;;;11.90;99.90;;;;;;5052545;28;20106;-23
2023/08/27 04:06:12;;;;;;;28.27;21.20;;;11.90;99.90;;;;;;5053096;28;20044;-24
2023/08/27 04:08:38;;;;;;;28.63;20.77;;;11.90;99.90;;;;;;5066847;28;20048;-24
2023/08/27 04:11:04;;;;;;;27.58;20.27;;;12.00;99.90;;;;;;5073503;28;20052;-24
2023/08/27 04:13:31;;;;;;;24.90;19.50;;;12.00;99.90;;;;;;5072877;28;20040;-24
2023/08/27 04:16:01;;;;;;;27.63;20.15;;;12.00;99.90;;;;;;5073452;28;20055;-24
2023/08/27 04:18:27;;;;;;;24.73;19.52;;;12.00;99.90;;;;;;5064301;28;20136;-23
2023/08/27 04:20:54;;;;;;;23.98;18.70;;;12.20;99.90;;;;;;5051939;28;20120;-23
2023/08/27 04:23:19;;;;;;;24.58;18.98;;;12.10;99.90;;;;;;5053651;28;20107;-24
2023/08/27 04:25:46;;;;;;;30.38;19.80;;;12.20;99.90;;;;;;5053645;28;20450;-23
2023/08/27 04:28:13;;;;;;;26.95;20.00;;;12.10;99.90;;;;;;5053783;28;20082;-23
2023/08/27 04:30:38;;;;;;;24.75;20.33;;;12.00;99.90;;;;;;5073153;28;20044;-24
2023/08/27 04:33:05;;;;;;;21.40;17.33;;;12.20;99.90;;;;;;5072453;28;20048;-24
2023/08/27 04:35:31;;;;;;;28.85;19.63;;;12.10;99.90;;;;;;5073029;28;20425;-23
2023/08/27 04:37:57;;;;;;;24.05;18.48;;;12.20;99.90;;;;;;5073812;28;20375;-24
2023/08/27 04:40:23;;;;;;;24.48;18.08;;;12.10;99.90;;;;;;5059715;28;20060;-24
2023/08/27 04:42:48;;;;;;;24.95;18.38;;;12.20;99.90;;;;;;5054011;28;20052;-24
2023/08/27 04:45:14;;;;;;;24.70;19.75;;;12.10;99.90;;;;;;5053233;28;20040;-23
2023/08/27 04:47:41;;;;;;;25.13;18.35;;;12.10;99.90;;;;;;5036149;28;20477;-24
2023/08/27 04:50:08;;;;;;;24.60;16.73;;;12.00;99.90;;;;;;5052219;28;20049;-24
2023/08/27 04:52:37;;;;;;;24.90;17.40;;;11.80;99.90;;;;;;5056479;28;20048;-24
2023/08/27 04:55:05;;;;;;;24.73;17.92;;;11.80;99.90;;;;;;5057113;28;20045;-24
2023/08/27 04:57:32;;;;;;;20.25;17.65;;;11.80;99.90;;;;;;5062310;28;20051;-23
2023/08/27 04:59:58;;;;;;;19.88;15.02;;;11.80;99.90;;;;;;5074525;28;20429;-23
2023/08/27 05:02:23;;;;;;;22.23;16.65;;;11.80;99.90;;;;;;5056127;28;20049;-23
2023/08/27 05:04:50;;;;;;;21.65;15.18;;;11.70;99.90;;;;;;5055787;28;20052;-23
2023/08/27 05:07:16;;;;;;;21.52;16.38;;;11.70;99.90;;;;;;5057257;28;20049;-23
2023/08/27 05:09:42;;;;;;;21.92;17.83;;;11.70;99.90;;;;;;5055676;28;20056;-23
2023/08/27 05:12:08;;;;;;;24.30;17.70;;;11.70;99.90;;;;;;5071156;28;20129;-24
2023/08/27 05:14:34;;;;;;;20.25;17.23;;;11.80;99.90;;;;;;5075178;28;20044;-23
2023/08/27 05:16:59;;;;;;;24.92;17.30;;;11.90;99.90;;;;;;5056362;28;20044;-23
2023/08/27 05:19:25;;;;;;;20.98;16.52;;;11.90;99.90;;;;;;5056283;28;20044;-24
2023/08/27 05:21:51;;;;;;;19.33;16.48;;;11.80;99.90;;;;;;5058367;28;20119;-23
2023/08/27 05:24:17;;;;;;;20.90;16.83;;;11.90;99.90;;;;;;5056068;28;20049;-23
2023/08/27 05:26:42;;;;;;;20.77;15.98;;;11.90;99.90;;;;;;5054875;28;20044;-23
2023/08/27 05:29:08;;;;;;;21.40;16.23;;;12.10;99.90;;;;;;5038681;28;20048;-23
2023/08/27 05:31:34;;;;;;;27.52;17.05;;;12.10;99.90;;;;;;5055839;28;20049;-23
2023/08/27 05:33:59;;;;;;;27.35;17.05;;;12.20;99.90;;;;;;5073263;28;20494;-23
2023/08/27 05:36:25;;;;;;;23.00;17.60;;;12.40;99.90;;;;;;5076027;28;20055;-24
2023/08/27 05:38:51;;;;;;;22.05;16.92;;;12.60;99.90;;;;;;5076482;28;20083;-24
2023/08/27 05:41:16;;;;;;;18.55;16.52;;;12.80;99.90;;;;;;5061326;28;20135;-23
2023/08/27 05:43:43;;;;;;;20.05;15.77;;;13.00;99.90;;;;;;5076457;28;20470;-24
2023/08/27 05:46:09;;;;;;;20.45;16.30;;;13.20;99.90;;;;;;5075147;28;20115;-23
2023/08/27 05:48:35;;;;;;;19.13;15.82;;;13.40;99.90;;;;;;5075861;28;20135;-24
2023/08/27 05:51:01;;;;;;;24.73;16.45;;;13.40;99.90;;;;;;5072460;28;20510;-23
2023/08/27 05:53:27;;;;;;;16.00;14.20;;;13.60;99.90;;;;;;5057331;28;20045;-23
2023/08/27 05:55:52;;;;;;;16.13;13.45;;;13.60;99.90;;;;;;5056436;28;20087;-22
2023/08/27 05:58:18;;;;;;;16.00;11.57;;;13.60;99.90;;;;;;5056800;28;20092;-22
2023/08/27 06:00:44;;;;;;;15.98;12.30;;;13.60;99.90;;;;;;5054414;28;20087;-23
2023/08/27 06:03:10;;;;;;;16.25;11.55;;;13.60;99.90;;;;;;5056512;28;20128;-22
2023/08/27 06:05:36;;;;;;;12.23;10.93;;;13.50;99.90;;;;;;5054191;28;20486;-22
2023/08/27 06:08:03;;;;;;;11.98;10.68;;;13.50;99.90;;;;;;5058047;28;20037;-22
2023/08/27 06:10:30;;;;;;;13.15;10.07;;;13.70;99.90;;;;;;5055415;28;20115;-22
2023/08/27 06:12:57;;;;;;;14.50;11.32;;;13.60;99.90;;;;;;5055398;28;20041;-22
2023/08/27 06:15:27;;;;;;;11.77;9.55;;;13.60;99.90;;;;;;5055341;28;20049;-22
2023/08/27 06:17:54;;;;;;;14.32;11.07;;;13.70;99.90;;;;;;5061783;28;20491;-22
2023/08/27 06:20:20;;;;;;;14.32;9.88;;;13.70;99.90;;;;;;5056673;28;20049;-22
2023/08/27 06:22:45;;;;;;;12.68;9.98;;;13.70;99.90;;;;;;5056425;28;20051;-22
2023/08/27 06:25:11;;;;;;;12.35;9.77;;;13.80;99.90;;;;;;5055956;28;20468;-23
2023/08/27 06:27:37;;;;;;;11.10;9.93;;;13.80;99.90;;;;;;5054732;28;20056;-22
2023/08/27 06:30:05;;;;;;;13.20;9.23;;;13.80;99.90;;;;;;5054934;28;20115;-22
2023/08/27 06:32:31;;;;;;;12.55;9.27;;;13.90;99.90;;;;;;5053817;28;20076;-22
2023/08/27 06:34:56;;;;;;;10.70;8.25;;;13.90;99.90;;;;;;5055935;28;20517;-22
2023/08/27 06:37:22;;;;;;;12.10;9.10;;;14.00;99.90;;;;;;5074990;28;20048;-22
2023/08/27 06:39:49;;;;;;;13.57;8.88;;;14.00;99.90;;;;;;5074771;28;20386;-22
2023/08/27 06:42:15;;;;;;;15.13;9.30;;;14.10;99.90;;;;;;5057487;28;20045;-22
2023/08/27 06:44:41;;;;;;;13.07;9.02;;;14.00;99.90;;;;;;5062804;28;20055;-22
2023/08/27 06:47:07;;;;;;;15.70;9.15;;;14.00;99.90;;;;;;5073596;28;20036;-22
2023/08/27 06:49:32;;;;;;;13.50;10.82;;;14.10;99.90;;;;;;5060070;28;20044;-22
2023/08/27 06:51:58;;;;;;;9.57;8.15;;;14.10;99.90;;;;;;5066702;28;20042;-22
2023/08/27 06:54:24;;;;;;;11.05;9.07;;;14.20;99.90;;;;;;5044807;28;20059;-22
2023/08/27 06:56:50;;;;;;;15.77;9.30;;;14.20;99.90;;;;;;5065560;28;20391;-22
2023/08/27 06:59:16;;;;;;;13.15;9.50;;;14.20;99.90;;;;;;5064940;28;20098;-22
2023/08/27 07:01:42;;;;;;;14.25;10.10;;;14.30;99.90;;;;;;5065689;28;20047;-22
2023/08/27 07:04:08;;;;;;;11.48;9.07;;;14.30;99.90;;;;;;5062377;28;20049;-22
2023/08/27 07:06:34;;;;;;;11.63;9.40;;;14.40;99.90;;;;;;5074131;28;20052;-22
2023/08/27 07:09:00;;;;;;;13.32;9.43;;;14.50;99.90;;;;;;5070503;28;20054;-23
2023/08/27 07:11:26;;;;;;;11.82;9.45;;;14.50;99.90;;;;;;5073412;28;20096;-23
2023/08/27 07:13:53;;;;;;;10.45;8.57;;;14.50;99.90;;;;;;5073862;28;20076;-23
2023/08/27 07:16:19;;;;;;;10.07;8.27;;;14.60;99.90;;;;;;5073788;28;20092;-22
2023/08/27 07:18:46;;;;;;;8.88;7.72;;;14.60;99.90;;;;;;5074082;28;20063;-23
2023/08/27 07:21:13;;;;;;;9.27;7.97;;;14.60;99.90;;;;;;5071469;28;20056;-22
2023/08/27 07:23:39;;;;;;;10.55;7.85;;;14.70;99.90;;;;;;5054029;28;20518;-23
2023/08/27 07:26:05;;;;;;;10.25;7.57;;;14.70;99.90;;;;;;5053981;28;20041;-23
2023/08/27 07:28:31;;;;;;;12.38;8.85;;;14.70;99.90;;;;;;5053758;28;20513;-23
2023/08/27 07:30:57;;;;;;;10.90;7.75;;;14.70;99.90;;;;;;5053934;28;20091;-23
2023/08/27 07:33:22;;;;;;;9.73;6.65;;;14.90;99.90;;;;;;5069113;28;20083;-23
2023/08/27 07:35:48;;;;;;;8.48;6.88;;;14.90;99.90;;;;;;5074747;28;20044;-23
2023/08/27 07:38:14;;;;;;;11.68;7.68;;;15.10;99.90;;;;;;5072907;28;20044;-23
2023/08/27 07:40:41;;;;;;;9.10;6.10;;;15.40;99.90;;;;;;5072501;28;20548;-23
2023/08/27 07:43:07;;;;;;;8.57;6.22;;;15.50;99.90;;;;;;5061697;28;20063;-23
2023/08/27 07:45:33;;;;;;;6.28;5.07;;;15.50;99.90;;;;;;5053648;28;20052;-23
2023/08/27 07:47:59;;;;;;;8.32;5.72;;;15.50;99.90;;;;;;5057286;28;20049;-23
2023/08/27 07:50:26;;;;;;;8.82;5.47;;;15.50;99.90;;;;;;5072099;28;20120;-23
2023/08/27 07:52:53;;;;;;;6.85;5.65;;;15.40;99.90;;;;;;5068185;28;20041;-23
2023/08/27 07:55:19;;;;;;;8.02;5.47;;;15.10;99.90;;;;;;5053908;28;20057;-23
2023/08/27 07:57:45;;;;;;;7.38;5.05;;;15.10;99.90;;;;;;5064673;28;20076;-23
2023/08/27 08:00:13;;;;;;;10.05;5.75;;;15.20;99.90;;;;;;5054458;28;20076;-23
2023/08/27 08:02:40;;;;;;;11.05;5.95;;;15.20;99.90;;;;;;5056767;28;20124;-23
2023/08/27 08:05:07;;;;;;;7.70;5.15;;;15.20;99.90;;;;;;5054046;28;20056;-23
2023/08/27 08:07:35;;;;;;;9.55;6.20;;;15.30;99.90;;;;;;5053233;28;20438;-23
2023/08/27 08:10:02;;;;;;;7.72;5.22;;;15.40;99.90;;;;;;5053045;28;20059;-22
2023/08/27 08:12:28;;;;;;;9.27;6.20;;;15.50;99.90;;;;;;5064109;28;20123;-23
2023/08/27 08:14:53;;;;;;;7.75;5.18;;;15.60;99.90;;;;;;5052778;28;20088;-23
2023/08/27 08:17:19;;;;;;;6.18;4.60;;;15.80;99.90;;;;;;5054154;28;20569;-23
2023/08/27 08:19:45;;;;;;;9.38;4.57;;;16.00;99.90;;;;;;5053931;28;20049;-23
2023/08/27 08:22:11;;;;;;;6.30;4.05;;;16.10;99.90;;;;;;5053951;28;20053;-24
2023/08/27 08:24:36;;;;;;;9.15;4.05;;;16.30;99.90;;;;;;5053680;28;20120;-24
2023/08/27 08:27:02;;;;;;;5.70;3.75;;;16.50;99.90;;;;;;5055140;28;20559;-23
2023/08/27 08:29:32;;;;;;;6.03;3.65;;;16.90;99.90;;;;;;5056265;28;20049;-23
2023/08/27 08:31:58;;;;;;;5.07;3.47;;;17.10;99.90;;;;;;5058675;28;20483;-23
2023/08/27 08:34:27;;;;;;;5.80;3.97;;;17.10;99.90;;;;;;5065938;28;20048;-24
2023/08/27 08:36:54;;;;;;;5.60;3.15;;;17.00;99.90;;;;;;5070027;28;20080;-24
2023/08/27 08:39:20;;;;;;;5.75;3.40;;;16.80;99.90;;;;;;5057693;28;20429;-24
2023/08/27 08:41:54;;;;;;;5.45;2.78;;;16.70;99.90;;;;;;5057242;28;20045;-24
2023/08/27 08:44:33;;;;;;;5.10;2.78;;;16.70;99.90;;;;;;5057116;28;20052;-24
2023/08/27 08:46:59;;;;;;;4.57;2.65;;;16.70;1.00;;;;;;5060356;28;20044;-24
2023/08/27 08:49:29;;;;;;;4.97;2.88;;;16.90;99.90;;;;;;5077273;28;20056;-24
2023/08/27 08:51:59;;;;;;;5.88;2.97;;;17.00;99.90;;;;;;5076932;28;20051;-24
2023/08/27 08:54:26;;;;;;;4.55;2.60;;;17.10;78.20;;;;;;5077495;28;20048;-24
2023/08/27 08:56:55;;;;;;;2.88;2.25;;;17.20;1.00;;;;;;5062540;28;20128;-23
2023/08/27 08:59:22;;;;;;;4.18;2.00;;;17.60;99.90;;;;;;5076767;28;20045;-24
2023/08/27 09:01:49;;;;;;;3.65;2.22;;;17.50;99.90;;;;;;5058204;28;20423;-24
2023/08/27 09:04:15;;;;;;;3.35;1.85;;;17.40;99.90;;;;;;5060895;28;20049;-24
2023/08/27 09:06:42;;;;;;;4.70;2.40;;;17.50;99.90;;;;;;5058104;28;20064;-24
2023/08/27 09:09:10;;;;;;;3.65;1.60;;;18.20;99.90;;;;;;5057173;28;20128;-25
2023/08/27 09:11:37;;;;;;;5.55;2.22;;;18.80;1.00;;;;;;5065465;28;20520;-25
2023/08/27 09:14:03;;;;;;;2.67;1.67;;;19.10;87.80;;;;;;5062696;28;20049;-24
2023/08/27 09:16:30;;;;;;;5.68;2.30;;;18.70;18.40;;;;;;5075393;28;20084;-25
2023/08/27 09:18:56;;;;;;;3.83;2.17;;;18.30;1.00;;;;;;5066014;28;20079;-25
2023/08/27 09:21:22;;;;;;;2.80;1.95;;;18.30;99.90;;;;;;5073224;28;20060;-25
2023/08/27 09:23:48;;;;;;;3.28;1.40;;;18.90;99.90;;;;;;5055602;28;20475;-25
2023/08/27 09:26:16;;;;;;;3.20;1.73;;;19.70;1.00;;;;;;5056341;28;20045;-26
2023/08/27 09:28:41;;;;;;;2.75;1.08;;;19.90;1.00;;;;;;5056693;28;20060;-25
2023/08/27 09:31:10;;;;;;;3.85;1.73;;;19.30;99.90;;;;;;5056286;28;20056;-26
2023/08/27 09:33:38;;;;;;;4.53;1.42;;;18.90;99.90;;;;;;5056113;28;20049;-26
2023/08/27 09:36:05;;;;;;;2.10;1.23;;;18.70;99.90;;;;;;5055272;28;20048;-26
2023/08/27 09:38:32;;;;;;;3.03;1.73;;;18.80;1.00;;;;;;5054654;28;20524;-26
2023/08/27 09:41:14;;;;;;;4.43;1.88;;;19.20;36.20;;;;;;5054671;28;20414;-26
2023/08/27 09:43:40;;;;;;;2.38;1.45;;;19.80;30.70;;;;;;5065355;28;20123;-26
2023/08/27 09:46:12;;;;;;;1.77;1.13;;;;;;;;;;5076556;28;20427;-25
2023/08/27 09:48:38;;;;;;;1.90;1.10;;;21.00;77.10;;;;;;5075951;28;20044;-26
2023/08/27 09:51:07;;;;;;;2.65;1.40;;;21.00;1.00;;;;;;5074751;28;20510;-26
2023/08/27 09:53:33;;;;;;;2.95;1.05;;;21.00;99.90;;;;;;5073411;28;20056;-25
2023/08/27 09:56:02;;;;;;;1.90;1.02;;;20.90;99.90;;;;;;5057523;28;20041;-25
2023/08/27 09:58:28;;;;;;;2.20;1.00;;;21.10;10.60;;;;;;5074597;28;20044;-26
2023/08/27 10:01:00;;;;;;;2.80;1.02;;;21.50;1.00;;;;;;5069541;28;20048;-27
2023/08/27 10:03:29;;;;;;;1.90;0.90;;;21.10;2.70;;;;;;5054239;28;20458;-26
2023/08/27 10:05:55;;;;;;;1.65;0.60;;;21.30;99.90;;;;;;5074437;28;20040;-26
2023/08/27 10:08:21;;;;;;;3.33;1.02;;;21.30;99.90;;;;;;5065654;28;20052;-26
2023/08/27 10:10:47;;;;;;;2.03;0.82;;;21.10;1.00;;;;;;5055793;28;20068;-26
2023/08/27 10:13:19;;;;;;;2.58;1.00;;;21.40;98.90;;;;;;5056329;28;20503;-26
2023/08/27 10:15:47;;;;;;;2.05;0.88;;;21.70;1.00;;;;;;5055457;28;20529;-26
2023/08/27 10:18:19;;;;;;;2.22;1.27;;;21.70;1.00;;;;;;5055611;28;20036;-26
2023/08/27 10:20:45;;;;;;;1.80;0.70;;;21.70;1.00;;;;;;5054747;28;20459;-26
2023/08/27 10:23:10;;;;;;;1.83;0.90;;;21.90;12.10;;;;;;5055287;28;20047;-26
2023/08/27 10:25:37;;;;;;;1.92;0.90;;;21.50;1.00;;;;;;5055288;28;20040;-27
2023/08/27 10:28:04;;;;;;;4.05;1.10;;;21.20;99.90;;;;;;5053634;28;20060;-26
2023/08/27 10:30:31;;;;;;;3.15;1.27;;;21.40;99.90;;;;;;5054266;28;20395;-26
2023/08/27 10:32:57;;;;;;;2.28;0.90;;;21.10;1.00;;;;;;5054373;28;20041;-25
2023/08/27 10:35:23;;;;;;;1.75;1.20;;;20.80;99.90;;;;;;5062137;28;20043;-24
2023/08/27 10:37:53;;;;;;;3.13;1.10;;;21.50;1.00;;;;;;5054542;28;20072;-26
2023/08/27 10:40:20;;;;;;;2.70;1.48;;;21.70;99.90;;;;;;5067736;28;20082;-26
2023/08/27 10:42:46;;;;;;;2.00;1.30;;;21.40;50.70;;;;;;5067525;28;20539;-26
2023/08/27 10:45:27;;;;;;;2.80;1.35;;;21.00;99.90;;;;;;5037288;28;20128;-27
2023/08/27 10:48:09;;;;;;;2.33;1.38;;;20.50;95.90;;;;;;5054438;28;20481;-26
2023/08/27 10:50:51;;;;;;;2.45;1.35;;;20.10;99.90;;;;;;5054436;28;20089;-26
2023/08/27 10:53:18;;;;;;;2.85;1.50;;;20.50;99.90;;;;;;5057625;28;20041;-26
2023/08/27 10:55:50;;;;;;;2.58;1.20;;;21.00;99.90;;;;;;5074309;28;20071;-26
2023/08/27 10:58:24;;;;;;;1.58;0.93;;;21.00;99.90;;;;;;5074627;28;20037;-27
2023/08/27 11:01:13;;;;;;;2.20;1.00;;;21.20;1.00;;;;;;5074992;28;20040;-27
2023/08/27 11:03:57;;;;;;;1.10;0.80;;;21.00;24.10;;;;;;5073408;28;21010;-25
2023/08/27 11:06:45;;;;;;;2.50;1.15;;;20.70;99.90;;;;;;5073769;28;20048;-26
2023/08/27 11:09:20;;;;;;;1.92;0.85;;;20.30;99.90;;;;;;5074085;28;20516;-27
2023/08/27 11:11:51;;;;;;;1.35;0.40;;;19.90;37.20;;;;;;5074939;28;20051;-26
2023/08/27 11:14:22;;;;;;;1.25;0.50;;;19.00;99.90;;;;;;5072574;28;20049;-24
2023/08/27 11:16:54;;;;;;;2.55;0.30;;;17.80;1.00;;;;;;5054338;28;20072;-26
2023/08/27 11:19:31;;;;;;;1.50;0.28;;;16.80;1.00;;;;;;5054224;28;20052;-26
2023/08/27 11:22:19;;;;;;;2.92;0.85;;;16.00;1.00;;;;;;5053822;28;20434;-24
2023/08/27 11:24:47;;;;;;;11.95;1.63;;;14.70;99.10;;;;;;5056884;28;20495;-22
2023/08/27 11:27:15;;;;;;;10.18;1.15;;;14.40;99.90;;;;;;5039684;28;20064;-23
2023/08/27 11:29:43;;;;;;;6.20;1.35;;;13.50;1.00;;;;;;5066511;28;20089;-23
2023/08/27 11:32:10;;;;;;;4.18;1.10;;;13.50;99.90;;;;;;5062843;28;20052;-22
2023/08/27 11:34:41;;;;;;;2.00;1.00;;;13.50;99.90;;;;;;5073644;28;20556;-22
2023/08/27 11:37:07;;;;;;;1.33;0.63;;;13.70;99.90;;;;;;5056480;28;20051;-22
2023/08/27 11:39:37;;;;;;;2.00;0.30;;;13.90;99.90;;;;;;5054474;28;20041;-21
2023/08/27 11:42:13;;;;;;;1.15;0.35;;;14.30;99.90;;;;;;5053757;28;20041;-21
2023/08/27 11:44:53;;;;;;;1.63;0.45;;;15.30;73.90;;;;;;5054119;28;20480;-22
2023/08/27 11:47:20;;;;;;;1.67;0.40;;;16.10;99.90;;;;;;5053841;28;20126;-21
2023/08/27 11:49:46;;;;;;;1.20;0.30;;;16.80;99.90;;;;;;5053740;28;20049;-21
2023/08/27 11:52:14;;;;;;;1.92;0.63;;;17.00;76.00;;;;;;5059108;28;20044;-22
2023/08/27 11:54:41;;;;;;;2.30;0.80;;;17.40;1.00;;;;;;5063211;28;20053;-22
2023/08/27 11:57:08;;;;;;;2.70;0.60;;;17.10;1.00;;;;;;5052475;28;20509;-23
2023/08/27 11:59:33;;;;;;;2.25;0.80;;;16.80;99.90;;;;;;5052760;28;20045;-22
2023/08/27 12:02:02;;;;;;;0.85;0.32;;;16.50;99.90;;;;;;5052013;28;20079;-23
2023/08/27 12:04:28;;;;;;;3.03;0.40;;;15.90;99.90;;;;;;5052954;28;20103;-22
2023/08/27 12:06:59;;;;;;;1.13;0.63;;;15.50;99.90;;;;;;5063579;28;20430;-23
2023/08/27 12:09:27;;;;;;;0.85;0.38;;;15.20;1.00;;;;;;5053627;28;20128;-23
2023/08/27 12:11:53;;;;;;;2.38;0.40;;;15.10;1.00;;;;;;5057652;28;20041;-22
2023/08/27 12:14:24;;;;;;;3.60;0.65;;;14.90;1.00;;;;;;5054690;28;20045;-22
2023/08/27 12:16:50;;;;;;;2.78;0.30;;;14.60;97.30;;;;;;5052262;28;20055;-21
2023/08/27 12:19:19;;;;;;;1.08;0.25;;;14.20;99.90;;;;;;5068069;28;20440;-21
2023/08/27 12:21:51;;;;;;;1.00;0.10;;;13.90;99.90;;;;;;5072484;28;20483;-21
2023/08/27 12:24:30;;;;;;;1.42;0.20;;;13.80;99.90;;;;;;5055097;28;20423;-21
2023/08/27 12:27:00;;;;;;;0.95;0.30;;;13.90;99.90;;;;;;5038012;28;20051;-21
2023/08/27 12:29:27;;;;;;;1.17;0.32;;;14.10;99.90;;;;;;5055785;28;20053;-20
2023/08/27 12:31:54;;;;;;;0.40;0.30;;;14.30;99.90;;;;;;5053353;28;20053;-20
2023/08/27 12:34:49;;;;;;;1.38;0.30;;;14.40;99.90;;;;;;5062697;28;20053;-20
2023/08/27 12:37:17;;;;;;;2.33;0.50;;;14.50;99.90;;;;;;5074181;28;20044;-21
2023/08/27 12:39:44;;;;;;;1.13;0.40;;;14.60;99.90;;;;;;5073201;28;20048;-20